createdAt,value
2018-03-24T00:00:31.780Z,11.9
2018-03-24T00:01:21.793Z,11.9
2018-03-24T00:02:11.817Z,11.9
2018-03-24T00:03:01.864Z,11.9
2018-03-24T00:03:53.182Z,11.9
2018-03-24T00:04:43.601Z,11.9
2018-03-24T00:05:33.317Z,11.9
2018-03-24T00:06:23.632Z,11.9
2018-03-24T00:07:13.880Z,11.9
2018-03-24T00:08:04.270Z,11.9
2018-03-24T00:08:54.022Z,11.9
2018-03-24T00:09:44.043Z,12
2018-03-24T00:10:34.169Z,12
2018-03-24T00:11:24.464Z,12
2018-03-24T00:12:14.303Z,12
2018-03-24T00:13:04.034Z,12
2018-03-24T00:13:53.783Z,12
2018-03-24T00:14:44.749Z,12
2018-03-24T00:15:33.068Z,12
2018-03-24T00:16:24.266Z,12
2018-03-24T00:17:13.491Z,12
2018-03-24T00:18:03.178Z,12.1
2018-03-24T00:18:52.476Z,12.1
2018-03-24T00:19:43.148Z,12.1
2018-03-24T00:20:33.240Z,12.1
2018-03-24T00:21:23.638Z,12.1
2018-03-24T00:22:13.523Z,12.1
2018-03-24T00:23:04.508Z,12.1
2018-03-24T00:23:54.371Z,12.1
2018-03-24T00:24:43.866Z,12.1
2018-03-24T00:25:33.621Z,12.1
2018-03-24T00:26:23.099Z,12.1
2018-03-24T00:27:15.055Z,12.1
2018-03-24T00:28:04.691Z,12.1
2018-03-24T00:28:54.707Z,12.1
2018-03-24T00:29:44.180Z,12.1
2018-03-24T00:30:34.332Z,12.2
2018-03-24T00:31:23.803Z,12.2
2018-03-24T00:32:14.070Z,12.2
2018-03-24T00:33:04.182Z,12.2
2018-03-24T00:33:53.670Z,12.2
2018-03-24T00:34:45.135Z,12.2
2018-03-24T00:35:34.025Z,12.2
2018-03-24T00:36:24.320Z,12.3
2018-03-24T00:37:14.307Z,12.3
2018-03-24T00:38:04.818Z,12.3
2018-03-24T00:38:55.307Z,12.3
2018-03-24T00:39:45.440Z,12.3
2018-03-24T00:40:34.422Z,12.3
2018-03-24T00:41:25.135Z,12.3
2018-03-24T00:42:15.028Z,12.3
2018-03-24T00:43:05.467Z,12.3
2018-03-24T00:43:54.857Z,12.3
2018-03-24T00:44:44.397Z,12.3
2018-03-24T00:45:35.377Z,12.4
2018-03-24T00:46:26.170Z,12.4
2018-03-24T00:47:15.131Z,12.4
2018-03-24T00:48:05.731Z,12.4
2018-03-24T00:48:55.737Z,12.4
2018-03-24T00:49:45.332Z,12.4
2018-03-24T00:50:35.535Z,12.4
2018-03-24T00:51:24.510Z,12.4
2018-03-24T00:52:14.643Z,12.4
2018-03-24T00:53:05.922Z,12.4
2018-03-24T00:53:56.537Z,12.4
2018-03-24T00:54:46.287Z,12.5
2018-03-24T00:55:35.891Z,12.5
2018-03-24T00:56:25.671Z,12.5
2018-03-24T00:57:14.831Z,12.5
2018-03-24T00:58:04.961Z,12.5
2018-03-24T00:58:56.847Z,12.6
2018-03-24T00:59:46.688Z,12.6
2018-03-24T01:00:35.888Z,12.6
2018-03-24T01:01:26.645Z,12.6
2018-03-24T01:02:14.841Z,12.6
2018-03-24T01:03:07.541Z,12.6
2018-03-24T01:03:57.319Z,12.6
2018-03-24T01:04:47.150Z,12.6
2018-03-24T01:05:36.471Z,12.6
2018-03-24T01:06:27.184Z,12.6
2018-03-24T01:07:16.574Z,12.6
2018-03-24T01:08:05.758Z,12.7
2018-03-24T01:08:57.275Z,12.7
2018-03-24T01:09:47.010Z,12.7
2018-03-24T01:10:36.263Z,12.7
2018-03-24T01:11:26.058Z,12.7
2018-03-24T01:12:15.992Z,12.7
2018-03-24T01:13:06.889Z,12.8
2018-03-24T01:13:56.568Z,12.8
2018-03-24T01:14:46.410Z,12.8
2018-03-24T01:15:37.272Z,12.8
2018-03-24T01:16:27.053Z,12.8
2018-03-24T01:17:16.937Z,12.8
2018-03-24T01:18:07.791Z,12.8
2018-03-24T01:18:57.066Z,12.8
2018-03-24T01:19:47.197Z,12.8
2018-03-24T01:20:39.177Z,12.8
2018-03-24T01:21:29.313Z,12.8
2018-03-24T01:22:19.294Z,12.8
2018-03-24T01:23:08.218Z,12.9
2018-03-24T01:23:59.412Z,12.8
2018-03-24T01:24:49.201Z,12.9
2018-03-24T01:25:39.244Z,12.9
2018-03-24T01:26:29.322Z,12.9
2018-03-24T01:27:18.842Z,12.9
2018-03-24T01:28:09.687Z,12.9
2018-03-24T01:28:59.787Z,12.9
2018-03-24T01:29:49.251Z,12.9
2018-03-24T01:30:39.294Z,12.9
2018-03-24T01:31:29.952Z,12.9
2018-03-24T01:32:20.054Z,12.9
2018-03-24T01:33:09.507Z,12.9
2018-03-24T01:33:59.547Z,13
2018-03-24T01:34:50.447Z,12.9
2018-03-24T01:35:40.257Z,13
2018-03-24T01:36:30.074Z,13
2018-03-24T01:37:20.037Z,13
2018-03-24T01:38:09.521Z,13
2018-03-24T01:38:59.064Z,13.1
2018-03-24T01:39:49.029Z,13
2018-03-24T01:40:39.268Z,13.1
2018-03-24T01:41:28.818Z,13.1
2018-03-24T01:42:19.292Z,13.1
2018-03-24T01:43:08.218Z,13.1
2018-03-24T01:43:58.615Z,13.1
2018-03-24T01:44:49.063Z,13.1
2018-03-24T01:45:40.027Z,13.1
2018-03-24T01:46:29.613Z,13.1
2018-03-24T01:47:20.313Z,13.1
2018-03-24T01:48:09.541Z,13.1
2018-03-24T01:48:59.705Z,13.1
2018-03-24T01:49:49.670Z,13.1
2018-03-24T01:50:39.326Z,13.1
2018-03-24T01:51:30.032Z,13.2
2018-03-24T01:52:19.576Z,13.1
2018-03-24T01:53:09.973Z,13.2
2018-03-24T01:53:59.561Z,13.2
2018-03-24T01:54:48.800Z,13.2
2018-03-24T01:55:39.931Z,13.2
2018-03-24T01:56:29.947Z,13.2
2018-03-24T01:57:18.436Z,13.3
2018-03-24T01:58:09.870Z,13.3
2018-03-24T01:58:59.443Z,13.3
2018-03-24T01:59:50.001Z,13.3
2018-03-24T02:00:39.372Z,13.3
2018-03-24T02:01:30.333Z,13.3
2018-03-24T02:02:20.651Z,13.3
2018-03-24T02:03:10.408Z,13.3
2018-03-24T02:03:59.940Z,13.3
2018-03-24T02:04:50.353Z,13.3
2018-03-24T02:05:40.578Z,13.3
2018-03-24T02:06:30.117Z,13.3
2018-03-24T02:07:20.527Z,13.3
2018-03-24T02:08:11.492Z,13.3
2018-03-24T02:09:00.711Z,13.3
2018-03-24T02:09:50.194Z,13.4
2018-03-24T02:10:41.255Z,13.4
2018-03-24T02:11:30.934Z,13.4
2018-03-24T02:12:21.308Z,13.4
2018-03-24T02:13:10.434Z,13.4
2018-03-24T02:14:01.175Z,13.4
2018-03-24T02:14:50.729Z,13.4
2018-03-24T02:15:41.178Z,13.4
2018-03-24T02:16:31.951Z,13.4
2018-03-24T02:17:21.660Z,13.4
2018-03-24T02:18:11.469Z,13.4
2018-03-24T02:19:01.400Z,13.4
2018-03-24T02:19:50.794Z,13.4
2018-03-24T02:20:40.951Z,13.4
2018-03-24T02:21:31.358Z,13.4
2018-03-24T02:22:20.975Z,13.4
2018-03-24T02:23:13.222Z,13.4
2018-03-24T02:24:03.235Z,13.5
2018-03-24T02:24:53.053Z,13.5
2018-03-24T02:25:43.068Z,13.5
2018-03-24T02:26:34.056Z,13.5
2018-03-24T02:27:24.006Z,13.5
2018-03-24T02:28:13.537Z,13.5
2018-03-24T02:29:02.724Z,13.5
2018-03-24T02:29:53.069Z,13.5
2018-03-24T02:30:42.335Z,13.6
2018-03-24T02:31:31.570Z,13.5
2018-03-24T02:32:22.233Z,13.6
2018-03-24T02:33:12.305Z,13.6
2018-03-24T02:34:01.253Z,13.6
2018-03-24T02:34:53.002Z,13.6
2018-03-24T02:35:43.167Z,13.6
2018-03-24T02:36:32.126Z,13.6
2018-03-24T02:37:23.075Z,13.6
2018-03-24T02:38:12.408Z,13.6
2018-03-24T02:39:03.945Z,13.6
2018-03-24T02:39:51.586Z,13.6
2018-03-24T02:40:43.402Z,13.6
2018-03-24T02:41:33.063Z,13.6
2018-03-24T02:42:23.478Z,13.6
2018-03-24T02:43:12.594Z,13.6
2018-03-24T02:44:03.700Z,13.6
2018-03-24T02:44:53.108Z,13.6
2018-03-24T02:45:43.594Z,13.6
2018-03-24T02:46:32.962Z,13.6
2018-03-24T02:47:23.088Z,13.7
2018-03-24T02:48:14.048Z,13.7
2018-03-24T02:49:02.975Z,13.7
2018-03-24T02:49:52.433Z,13.7
2018-03-24T02:50:44.165Z,13.7
2018-03-24T02:51:33.910Z,13.7
2018-03-24T02:52:23.576Z,13.7
2018-03-24T02:53:13.649Z,13.7
2018-03-24T02:54:04.273Z,13.7
2018-03-24T02:54:54.088Z,13.7
2018-03-24T02:55:43.848Z,13.7
2018-03-24T02:56:35.265Z,13.7
2018-03-24T02:57:23.414Z,13.8
2018-03-24T02:58:14.334Z,13.8
2018-03-24T02:59:05.287Z,13.8
2018-03-24T02:59:54.605Z,13.8
2018-03-24T03:00:44.942Z,13.8
2018-03-24T03:01:34.000Z,13.8
2018-03-24T03:02:25.396Z,13.8
2018-03-24T03:03:14.930Z,13.8
2018-03-24T03:04:05.606Z,13.8
2018-03-24T03:04:55.261Z,13.8
2018-03-24T03:05:46.227Z,13.8
2018-03-24T03:06:36.242Z,13.8
2018-03-24T03:07:26.041Z,13.8
2018-03-24T03:08:16.069Z,13.8
2018-03-24T03:09:06.446Z,13.8
2018-03-24T03:09:55.931Z,13.8
2018-03-24T03:10:46.494Z,13.8
2018-03-24T03:11:36.052Z,13.8
2018-03-24T03:12:26.077Z,13.8
2018-03-24T03:13:16.548Z,13.8
2018-03-24T03:14:06.163Z,13.8
2018-03-24T03:14:56.809Z,13.8
2018-03-24T03:15:45.724Z,13.9
2018-03-24T03:16:36.661Z,13.9
2018-03-24T03:17:26.133Z,13.9
2018-03-24T03:18:17.008Z,13.9
2018-03-24T03:19:06.483Z,13.9
2018-03-24T03:19:55.033Z,13.9
2018-03-24T03:20:45.588Z,13.9
2018-03-24T03:21:35.862Z,13.9
2018-03-24T03:22:25.303Z,13.9
2018-03-24T03:23:16.100Z,13.9
2018-03-24T03:24:07.080Z,13.9
2018-03-24T03:24:55.959Z,13.9
2018-03-24T03:25:47.092Z,13.9
2018-03-24T03:26:35.952Z,13.9
2018-03-24T03:27:26.039Z,13.9
2018-03-24T03:28:15.935Z,13.9
2018-03-24T03:29:05.490Z,13.9
2018-03-24T03:29:56.225Z,13.9
2018-03-24T03:30:45.770Z,13.9
2018-03-24T03:31:36.940Z,13.9
2018-03-24T03:32:25.628Z,13.9
2018-03-24T03:33:16.205Z,14
2018-03-24T03:34:07.114Z,13.9
2018-03-24T03:34:56.295Z,14
2018-03-24T03:35:45.844Z,14
2018-03-24T03:36:36.985Z,14
2018-03-24T03:37:26.737Z,14
2018-03-24T03:38:16.897Z,14
2018-03-24T03:39:06.765Z,14
2018-03-24T03:39:56.337Z,14
2018-03-24T03:40:47.176Z,14
2018-03-24T03:41:37.491Z,14
2018-03-24T03:42:26.949Z,14
2018-03-24T03:43:16.192Z,14.1
2018-03-24T03:44:05.906Z,14
2018-03-24T03:44:58.319Z,14.1
2018-03-24T03:45:47.674Z,14.1
2018-03-24T03:46:37.677Z,14.1
2018-03-24T03:47:28.784Z,14.1
2018-03-24T03:48:17.951Z,14.1
2018-03-24T03:49:07.468Z,14.1
2018-03-24T03:49:58.027Z,14.1
2018-03-24T03:50:48.149Z,14.1
2018-03-24T03:51:37.667Z,14.1
2018-03-24T03:52:27.587Z,14.1
2018-03-24T03:53:18.734Z,14.1
2018-03-24T03:54:07.992Z,14.1
2018-03-24T03:54:58.170Z,14.1
2018-03-24T03:55:47.248Z,14.1
2018-03-24T03:56:38.197Z,14.1
2018-03-24T03:57:28.632Z,14.1
2018-03-24T03:58:18.689Z,14.1
2018-03-24T03:59:08.436Z,14.1
2018-03-24T03:59:57.917Z,14.1
2018-03-24T04:00:47.868Z,14.1
2018-03-24T04:01:39.723Z,14.1
2018-03-24T04:02:27.805Z,14.1
2018-03-24T04:03:18.835Z,14.1
2018-03-24T04:04:08.666Z,14.1
2018-03-24T04:04:58.831Z,14.1
2018-03-24T04:05:47.788Z,14.1
2018-03-24T04:06:38.813Z,14.1
2018-03-24T04:07:28.513Z,14.2
2018-03-24T04:08:18.606Z,14.2
2018-03-24T04:09:09.316Z,14.2
2018-03-24T04:09:58.761Z,14.2
2018-03-24T04:10:49.912Z,14.2
2018-03-24T04:11:39.388Z,14.2
2018-03-24T04:12:29.176Z,14.2
2018-03-24T04:13:19.852Z,14.2
2018-03-24T04:14:08.370Z,14.2
2018-03-24T04:14:58.815Z,14.2
2018-03-24T04:15:49.588Z,14.2
2018-03-24T04:16:39.347Z,14.2
2018-03-24T04:17:29.764Z,14.2
2018-03-24T04:18:18.871Z,14.3
2018-03-24T04:19:09.572Z,14.2
2018-03-24T04:19:59.282Z,14.3
2018-03-24T04:20:48.629Z,14.3
2018-03-24T04:21:40.233Z,14.3
2018-03-24T04:22:29.714Z,14.3
2018-03-24T04:23:20.456Z,14.3
2018-03-24T04:24:09.344Z,14.3
2018-03-24T04:25:00.443Z,14.3
2018-03-24T04:25:50.200Z,14.3
2018-03-24T04:26:40.290Z,14.3
2018-03-24T04:27:29.688Z,14.3
2018-03-24T04:28:20.019Z,14.3
2018-03-24T04:29:10.867Z,14.3
2018-03-24T04:30:00.735Z,14.3
2018-03-24T04:30:50.210Z,14.3
2018-03-24T04:31:40.878Z,14.3
2018-03-24T04:32:30.924Z,14.3
2018-03-24T04:33:21.093Z,14.3
2018-03-24T04:34:11.027Z,14.3
2018-03-24T04:35:00.805Z,14.3
2018-03-24T04:35:50.594Z,14.3
2018-03-24T04:36:40.912Z,14.3
2018-03-24T04:37:31.229Z,14.3
2018-03-24T04:38:21.861Z,14.3
2018-03-24T04:39:12.165Z,14.3
2018-03-24T04:40:02.564Z,14.3
2018-03-24T04:40:52.849Z,14.3
2018-03-24T04:41:43.180Z,14.3
2018-03-24T04:42:32.709Z,14.3
2018-03-24T04:43:23.353Z,14.3
2018-03-24T04:44:13.078Z,14.3
2018-03-24T04:45:03.458Z,14.3
2018-03-24T04:45:52.893Z,14.3
2018-03-24T04:46:43.497Z,14.3
2018-03-24T04:47:33.098Z,14.3
2018-03-24T04:48:23.711Z,14.4
2018-03-24T04:49:13.162Z,14.4
2018-03-24T04:50:03.211Z,14.3
2018-03-24T04:50:53.807Z,14.4
2018-03-24T04:51:43.930Z,14.4
2018-03-24T04:52:33.652Z,14.4
2018-03-24T04:53:24.019Z,14.4
2018-03-24T04:54:13.812Z,14.4
2018-03-24T04:55:03.829Z,14.4
2018-03-24T04:55:53.700Z,14.4
2018-03-24T04:56:43.063Z,14.4
2018-03-24T04:57:33.971Z,14.4
2018-03-24T04:58:23.757Z,14.4
2018-03-24T04:59:13.281Z,14.4
2018-03-24T05:00:04.192Z,14.4
2018-03-24T05:00:53.830Z,14.4
2018-03-24T05:01:43.493Z,14.4
2018-03-24T05:02:33.797Z,14.4
2018-03-24T05:03:24.131Z,14.4
2018-03-24T05:04:13.645Z,14.4
2018-03-24T05:05:04.545Z,14.4
2018-03-24T05:05:54.065Z,14.4
2018-03-24T05:06:44.172Z,14.4
2018-03-24T05:07:34.430Z,14.4
2018-03-24T05:08:24.212Z,14.4
2018-03-24T05:09:14.801Z,14.4
2018-03-24T05:10:04.595Z,14.4
2018-03-24T05:10:53.825Z,14.4
2018-03-24T05:11:45.231Z,14.4
2018-03-24T05:12:34.272Z,14.4
2018-03-24T05:13:24.314Z,14.4
2018-03-24T05:14:14.870Z,14.4
2018-03-24T05:15:04.138Z,14.4
2018-03-24T05:15:53.657Z,14.4
2018-03-24T05:16:44.467Z,14.4
2018-03-24T05:17:34.404Z,14.4
2018-03-24T05:18:24.644Z,14.4
2018-03-24T05:19:14.154Z,14.4
2018-03-24T05:20:04.464Z,14.4
2018-03-24T05:20:54.571Z,14.4
2018-03-24T05:21:44.911Z,14.5
2018-03-24T05:22:34.669Z,14.4
2018-03-24T05:23:24.716Z,14.5
2018-03-24T05:24:15.079Z,14.4
2018-03-24T05:25:04.851Z,14.5
2018-03-24T05:25:55.346Z,14.5
2018-03-24T05:26:45.156Z,14.4
2018-03-24T05:27:34.721Z,14.5
2018-03-24T05:28:25.338Z,14.5
2018-03-24T05:29:14.626Z,14.5
2018-03-24T05:30:05.496Z,14.5
2018-03-24T05:30:56.280Z,14.5
2018-03-24T05:31:45.516Z,14.5
2018-03-24T05:32:35.811Z,14.5
2018-03-24T05:33:26.212Z,14.5
2018-03-24T05:34:15.944Z,14.5
2018-03-24T05:35:06.008Z,14.5
2018-03-24T05:35:56.082Z,14.5
2018-03-24T05:36:46.138Z,14.5
2018-03-24T05:37:36.773Z,14.5
2018-03-24T05:38:26.023Z,14.6
2018-03-24T05:39:16.988Z,14.5
2018-03-24T05:40:06.655Z,14.6
2018-03-24T05:40:56.358Z,14.6
2018-03-24T05:41:46.730Z,14.5
2018-03-24T05:42:35.783Z,14.6
2018-03-24T05:43:26.018Z,14.5
2018-03-24T05:44:16.994Z,14.5
2018-03-24T05:45:07.032Z,14.6
2018-03-24T05:45:56.122Z,14.6
2018-03-24T05:46:46.242Z,14.6
2018-03-24T05:47:37.130Z,14.6
2018-03-24T05:48:27.269Z,14.5
2018-03-24T05:49:17.281Z,14.6
2018-03-24T05:50:06.734Z,14.6
2018-03-24T05:50:56.782Z,14.6
2018-03-24T05:51:47.150Z,14.6
2018-03-24T05:52:36.680Z,14.6
2018-03-24T05:53:27.244Z,14.6
2018-03-24T05:54:17.602Z,14.6
2018-03-24T05:55:07.964Z,14.6
2018-03-24T05:55:56.991Z,14.6
2018-03-24T05:56:46.535Z,14.6
2018-03-24T05:57:38.104Z,14.6
2018-03-24T05:58:27.872Z,14.6
2018-03-24T05:59:18.465Z,14.6
2018-03-24T06:00:08.302Z,14.6
2018-03-24T06:00:58.311Z,14.6
2018-03-24T06:01:48.652Z,14.6
2018-03-24T06:02:38.751Z,14.6
2018-03-24T06:03:28.304Z,14.6
2018-03-24T06:04:18.287Z,14.6
2018-03-24T06:05:08.331Z,14.6
2018-03-24T06:05:58.064Z,14.6
2018-03-24T06:06:48.426Z,14.6
2018-03-24T06:07:38.191Z,14.6
2018-03-24T06:08:28.834Z,14.6
2018-03-24T06:09:18.873Z,14.6
2018-03-24T06:10:08.769Z,14.6
2018-03-24T06:10:58.709Z,14.6
2018-03-24T06:11:49.127Z,14.6
2018-03-24T06:12:39.145Z,14.6
2018-03-24T06:13:29.165Z,14.6
2018-03-24T06:14:19.247Z,14.6
2018-03-24T06:15:09.280Z,14.6
2018-03-24T06:15:59.373Z,14.6
2018-03-24T06:16:48.773Z,14.6
2018-03-24T06:17:39.429Z,14.6
2018-03-24T06:18:29.797Z,14.6
2018-03-24T06:19:19.851Z,14.6
2018-03-24T06:20:09.321Z,14.6
2018-03-24T06:20:59.922Z,14.6
2018-03-24T06:21:49.561Z,14.6
2018-03-24T06:22:38.966Z,14.6
2018-03-24T06:23:30.092Z,14.6
2018-03-24T06:24:19.642Z,14.6
2018-03-24T06:25:10.283Z,14.6
2018-03-24T06:26:00.109Z,14.6
2018-03-24T06:26:50.096Z,14.6
2018-03-24T06:27:40.500Z,14.6
2018-03-24T06:28:30.481Z,14.6
2018-03-24T06:29:20.543Z,14.6
2018-03-24T06:30:10.326Z,14.6
2018-03-24T06:31:00.341Z,14.6
2018-03-24T06:31:50.150Z,14.6
2018-03-24T06:32:40.210Z,14.6
2018-03-24T06:33:30.835Z,14.5
2018-03-24T06:34:20.105Z,14.5
2018-03-24T06:35:10.433Z,14.5
2018-03-24T06:36:00.459Z,14.5
2018-03-24T06:36:50.476Z,14.5
2018-03-24T06:37:41.059Z,14.5
2018-03-24T06:38:30.956Z,14.4
2018-03-24T06:39:20.120Z,14.4
2018-03-24T06:40:10.993Z,14.4
2018-03-24T06:41:00.990Z,14.4
2018-03-24T06:41:51.084Z,14.4
2018-03-24T06:42:40.991Z,14.4
2018-03-24T06:43:30.926Z,14.4
2018-03-24T06:44:20.823Z,14.4
2018-03-24T06:45:11.078Z,14.4
2018-03-24T06:46:01.405Z,14.4
2018-03-24T06:46:50.710Z,14.4
2018-03-24T06:47:41.260Z,14.4
2018-03-24T06:48:31.580Z,14.3
2018-03-24T06:49:21.682Z,14.3
2018-03-24T06:50:11.952Z,14.3
2018-03-24T06:51:01.506Z,14.3
2018-03-24T06:51:50.920Z,14.3
2018-03-24T06:52:41.565Z,14.2
2018-03-24T06:53:31.892Z,14.2
2018-03-24T06:54:21.528Z,14.2
2018-03-24T06:55:11.486Z,14.2
2018-03-24T06:56:02.067Z,14.2
2018-03-24T06:56:51.829Z,14.2
2018-03-24T06:57:41.622Z,14.2
2018-03-24T06:58:32.205Z,14.2
2018-03-24T06:59:22.397Z,14.1
2018-03-24T07:00:12.374Z,14.1
2018-03-24T07:01:01.970Z,14.1
2018-03-24T07:01:52.241Z,14.1
2018-03-24T07:02:42.540Z,14.1
2018-03-24T07:03:32.018Z,14.1
2018-03-24T07:04:22.690Z,14.1
2018-03-24T07:05:12.680Z,14.1
2018-03-24T07:06:02.449Z,14.1
2018-03-24T07:06:52.819Z,14.1
2018-03-24T07:07:43.133Z,14
2018-03-24T07:08:33.187Z,14
2018-03-24T07:09:22.710Z,13.9
2018-03-24T07:10:13.314Z,13.9
2018-03-24T07:11:03.336Z,13.9
2018-03-24T07:11:52.856Z,13.9
2018-03-24T07:12:42.671Z,13.8
2018-03-24T07:13:33.290Z,13.8
2018-03-24T07:14:22.738Z,13.8
2018-03-24T07:15:12.888Z,13.8
2018-03-24T07:16:03.158Z,13.8
2018-03-24T07:16:53.198Z,13.8
2018-03-24T07:17:43.565Z,13.8
2018-03-24T07:18:33.571Z,13.7
2018-03-24T07:19:23.636Z,13.7
2018-03-24T07:20:13.427Z,13.7
2018-03-24T07:21:04.007Z,13.7
2018-03-24T07:21:53.793Z,13.7
2018-03-24T07:22:43.598Z,13.6
2018-03-24T07:23:34.178Z,13.6
2018-03-24T07:24:23.955Z,13.6
2018-03-24T07:25:14.363Z,13.6
2018-03-24T07:26:04.428Z,13.6
2018-03-24T07:26:53.905Z,13.6
2018-03-24T07:27:44.633Z,13.6
2018-03-24T07:28:34.601Z,13.6
2018-03-24T07:29:23.517Z,13.6
2018-03-24T07:30:14.433Z,13.6
2018-03-24T07:31:03.961Z,13.5
2018-03-24T07:31:54.220Z,13.6
2018-03-24T07:32:44.395Z,13.5
2018-03-24T07:33:34.122Z,13.5
2018-03-24T07:34:23.656Z,13.5
2018-03-24T07:35:14.477Z,13.4
2018-03-24T07:36:05.067Z,13.5
2018-03-24T07:36:54.427Z,13.4
2018-03-24T07:37:43.894Z,13.4
2018-03-24T07:38:34.519Z,13.4
2018-03-24T07:39:25.384Z,13.4
2018-03-24T07:40:15.042Z,13.4
2018-03-24T07:41:04.082Z,13.4
2018-03-24T07:41:54.114Z,13.4
2018-03-24T07:42:44.659Z,13.4
2018-03-24T07:43:35.305Z,13.4
2018-03-24T07:44:25.070Z,13.3
2018-03-24T07:45:15.214Z,13.3
2018-03-24T07:46:05.207Z,13.3
2018-03-24T07:46:55.619Z,13.3
2018-03-24T07:47:45.319Z,13.3
2018-03-24T07:48:35.125Z,13.3
2018-03-24T07:49:25.482Z,13.3
2018-03-24T07:50:15.531Z,13.3
2018-03-24T07:51:05.584Z,13.3
2018-03-24T07:51:55.878Z,13.3
2018-03-24T07:52:45.131Z,13.3
2018-03-24T07:53:36.239Z,13.3
2018-03-24T07:54:26.059Z,13.3
2018-03-24T07:55:16.065Z,13.3
2018-03-24T07:56:06.169Z,13.3
2018-03-24T07:56:55.629Z,13.3
2018-03-24T07:57:45.426Z,13.3
2018-03-24T07:58:35.721Z,13.3
2018-03-24T07:59:26.651Z,13.2
2018-03-24T08:00:16.417Z,13.2
2018-03-24T08:01:06.819Z,13.2
2018-03-24T08:01:56.532Z,13.2
2018-03-24T08:02:46.618Z,13.2
2018-03-24T08:03:36.658Z,13.2
2018-03-24T08:04:27.129Z,13.2
2018-03-24T08:05:16.581Z,13.1
2018-03-24T08:06:06.555Z,13.1
2018-03-24T08:06:56.348Z,13.1
2018-03-24T08:07:47.048Z,13.1
2018-03-24T08:08:36.218Z,13.1
2018-03-24T08:09:26.876Z,13.1
2018-03-24T08:10:16.381Z,13.1
2018-03-24T08:11:06.946Z,13.1
2018-03-24T08:11:56.993Z,13.1
2018-03-24T08:12:46.984Z,13.1
2018-03-24T08:13:36.787Z,13.1
2018-03-24T08:14:27.109Z,13.1
2018-03-24T08:15:17.706Z,13.1
2018-03-24T08:16:07.205Z,13.1
2018-03-24T08:16:56.011Z,13
2018-03-24T08:17:46.040Z,13
2018-03-24T08:18:36.176Z,13.1
2018-03-24T08:19:25.420Z,13
2018-03-24T08:20:15.698Z,13
2018-03-24T08:21:06.058Z,13
2018-03-24T08:21:56.821Z,13
2018-03-24T08:22:45.868Z,13
2018-03-24T08:23:36.407Z,13
2018-03-24T08:24:26.998Z,12.9
2018-03-24T08:25:16.433Z,12.9
2018-03-24T08:26:06.719Z,12.9
2018-03-24T08:26:56.944Z,12.9
2018-03-24T08:27:46.889Z,12.9
2018-03-24T08:28:37.459Z,12.9
2018-03-24T08:29:26.522Z,12.9
2018-03-24T08:30:15.979Z,12.9
2018-03-24T08:31:06.639Z,12.9
2018-03-24T08:31:56.925Z,12.9
2018-03-24T08:32:46.672Z,12.9
2018-03-24T08:33:37.000Z,12.9
2018-03-24T08:34:27.491Z,12.9
2018-03-24T08:35:17.000Z,12.8
2018-03-24T08:36:06.863Z,12.9
2018-03-24T08:36:56.724Z,12.8
2018-03-24T08:37:47.124Z,12.8
2018-03-24T08:38:36.067Z,12.8
2018-03-24T08:39:26.897Z,12.8
2018-03-24T08:40:16.902Z,12.8
2018-03-24T08:41:07.387Z,12.8
2018-03-24T08:41:57.441Z,12.8
2018-03-24T08:42:47.724Z,12.8
2018-03-24T08:43:38.269Z,12.8
2018-03-24T08:44:27.438Z,12.8
2018-03-24T08:45:17.497Z,12.8
2018-03-24T08:46:06.969Z,12.8
2018-03-24T08:46:57.498Z,12.7
2018-03-24T08:47:47.815Z,12.8
2018-03-24T08:48:37.631Z,12.7
2018-03-24T08:49:28.271Z,12.7
2018-03-24T08:50:18.424Z,12.7
2018-03-24T08:51:08.594Z,12.7
2018-03-24T08:51:58.019Z,12.7
2018-03-24T08:52:47.796Z,12.6
2018-03-24T08:53:39.415Z,12.8
2018-03-24T08:54:27.781Z,12.7
2018-03-24T08:55:18.360Z,12.7
2018-03-24T08:56:07.397Z,12.7
2018-03-24T08:56:58.981Z,12.7
2018-03-24T08:57:48.751Z,12.7
2018-03-24T08:58:38.778Z,12.7
2018-03-24T08:59:28.681Z,12.7
2018-03-24T09:00:18.424Z,12.7
2018-03-24T09:01:09.480Z,12.6
2018-03-24T09:01:58.701Z,12.6
2018-03-24T09:02:48.948Z,12.6
2018-03-24T09:03:38.636Z,12.6
2018-03-24T09:04:29.158Z,12.6
2018-03-24T09:05:19.010Z,12.6
2018-03-24T09:06:09.896Z,12.6
2018-03-24T09:07:00.020Z,12.6
2018-03-24T09:07:49.034Z,12.6
2018-03-24T09:08:39.632Z,12.6
2018-03-24T09:09:29.830Z,12.6
2018-03-24T09:10:19.353Z,12.6
2018-03-24T09:11:09.502Z,12.6
2018-03-24T09:11:59.370Z,12.6
2018-03-24T09:12:50.307Z,12.6
2018-03-24T09:13:39.987Z,12.5
2018-03-24T09:14:29.092Z,12.5
2018-03-24T09:15:20.972Z,12.5
2018-03-24T09:16:10.322Z,12.5
2018-03-24T09:17:00.171Z,12.5
2018-03-24T09:17:50.655Z,12.5
2018-03-24T09:18:41.779Z,12.5
2018-03-24T09:19:29.500Z,12.5
2018-03-24T09:20:21.063Z,12.4
2018-03-24T09:21:10.834Z,12.4
2018-03-24T09:22:00.084Z,12.4
2018-03-24T09:22:49.944Z,12.4
2018-03-24T09:23:39.492Z,12.4
2018-03-24T09:24:29.982Z,12.4
2018-03-24T09:25:19.559Z,12.4
2018-03-24T09:26:10.684Z,12.4
2018-03-24T09:27:00.909Z,12.4
2018-03-24T09:27:51.644Z,12.4
2018-03-24T09:28:41.066Z,12.4
2018-03-24T09:29:32.531Z,12.4
2018-03-24T09:30:21.990Z,12.4
2018-03-24T09:31:10.629Z,12.4
2018-03-24T09:32:00.049Z,12.4
2018-03-24T09:32:51.362Z,12.4
2018-03-24T09:33:39.512Z,12.4
2018-03-24T09:34:31.733Z,12.4
2018-03-24T09:35:21.513Z,12.4
2018-03-24T09:36:11.331Z,12.4
2018-03-24T09:37:00.515Z,12.4
2018-03-24T09:37:50.936Z,12.4
2018-03-24T09:38:42.074Z,12.4
2018-03-24T09:39:30.818Z,12.4
2018-03-24T09:40:21.478Z,12.4
2018-03-24T09:41:11.518Z,12.3
2018-03-24T09:42:00.957Z,12.3
2018-03-24T09:42:52.023Z,12.3
2018-03-24T09:43:41.764Z,12.3
2018-03-24T09:44:31.132Z,12.3
2018-03-24T09:45:21.777Z,12.3
2018-03-24T09:46:11.976Z,12.3
2018-03-24T09:47:01.571Z,12.3
2018-03-24T09:47:52.498Z,12.3
2018-03-24T09:48:40.578Z,12.3
2018-03-24T17:51:53.391Z,13.1
2018-03-24T17:52:43.912Z,13.1
2018-03-24T17:53:33.999Z,13.1
2018-03-24T17:54:23.474Z,13.1
2018-03-24T17:55:15.018Z,13.1
2018-03-24T17:56:03.838Z,13.1
2018-03-24T17:56:54.250Z,13.1
2018-03-24T17:57:44.115Z,13.1
2018-03-24T17:58:34.333Z,13.1
2018-03-24T17:59:25.028Z,13.1
2018-03-24T18:00:14.998Z,13.1
2018-03-24T18:01:04.668Z,13.1
2018-03-24T18:01:54.173Z,13.2
2018-03-24T18:02:44.417Z,13.2
2018-03-24T18:03:34.192Z,13.2
2018-03-24T18:04:25.445Z,13.2
2018-03-24T18:05:14.748Z,13.2
2018-03-24T18:06:05.292Z,13.3
2018-03-24T18:06:56.136Z,13.3
2018-03-24T18:07:45.606Z,13.3
2018-03-24T18:08:34.954Z,13.3
2018-03-24T18:09:26.342Z,13.3
2018-03-24T18:10:16.829Z,13.3
2018-03-24T18:11:06.214Z,13.3
2018-03-24T18:11:56.812Z,13.3
2018-03-24T18:12:46.889Z,13.3
2018-03-24T18:13:36.196Z,13.3
2018-03-24T18:14:25.975Z,13.3
2018-03-24T18:15:16.252Z,13.3
2018-03-24T18:16:07.100Z,13.3
2018-03-24T18:16:56.923Z,13.3
2018-03-24T18:17:46.971Z,13.3
2018-03-24T18:18:37.072Z,13.3
2018-03-24T18:19:27.358Z,13.4
2018-03-24T18:20:16.914Z,13.4
2018-03-24T18:21:06.397Z,13.4
2018-03-24T18:21:57.306Z,13.4
2018-03-24T18:22:47.322Z,13.4
2018-03-24T18:23:36.812Z,13.4
2018-03-24T18:24:27.230Z,13.4
2018-03-24T18:25:17.225Z,13.4
2018-03-24T18:26:07.338Z,13.4
2018-03-24T18:26:58.156Z,13.4
2018-03-24T18:27:47.933Z,13.4
2018-03-24T18:28:36.861Z,13.4
2018-03-24T18:29:25.941Z,13.4
2018-03-24T18:30:17.303Z,13.4
2018-03-24T18:31:07.892Z,13.4
2018-03-24T18:31:57.958Z,13.4
2018-03-24T18:32:47.992Z,13.4
2018-03-24T18:33:37.838Z,13.4
2018-03-24T18:34:28.143Z,13.4
2018-03-24T18:35:18.640Z,13.5
2018-03-24T18:36:06.250Z,13.5
2018-03-24T18:36:56.102Z,13.5
2018-03-24T18:37:46.625Z,13.5
2018-03-24T18:38:37.323Z,13.5
2018-03-24T18:39:28.126Z,13.5
2018-03-24T18:40:16.440Z,13.5
2018-03-24T18:41:07.254Z,13.5
2018-03-24T18:41:56.172Z,13.6
2018-03-24T18:42:47.069Z,13.5
2018-03-24T18:43:37.455Z,13.5
2018-03-24T18:44:28.853Z,13.6
2018-03-24T18:45:18.812Z,13.6
2018-03-24T18:46:09.120Z,13.6
2018-03-24T18:46:59.162Z,13.6
2018-03-24T18:47:49.272Z,13.6
2018-03-24T18:48:39.123Z,13.6
2018-03-24T18:49:28.903Z,13.6
2018-03-24T18:50:19.425Z,13.6
2018-03-24T18:51:09.989Z,13.6
2018-03-24T18:51:59.525Z,13.6
2018-03-24T18:52:49.895Z,13.6
2018-03-24T18:53:39.591Z,13.6
2018-03-24T18:54:29.556Z,13.6
2018-03-24T18:55:19.421Z,13.6
2018-03-24T18:56:10.326Z,13.6
2018-03-24T18:57:00.124Z,13.6
2018-03-24T18:57:50.143Z,13.6
2018-03-24T18:58:40.017Z,13.6
2018-03-24T18:59:30.001Z,13.6
2018-03-24T19:00:20.508Z,13.7
2018-03-24T19:01:09.914Z,13.7
2018-03-24T19:02:00.172Z,13.7
2018-03-24T19:02:50.221Z,13.7
2018-03-24T19:03:39.716Z,13.7
2018-03-24T19:04:30.966Z,13.7
2018-03-24T19:05:20.677Z,13.7
2018-03-24T19:06:11.036Z,13.7
2018-03-24T19:07:01.054Z,13.7
2018-03-24T19:07:50.925Z,13.7
2018-03-24T19:08:40.668Z,13.7
2018-03-24T19:09:30.357Z,13.8
2018-03-24T19:10:20.995Z,13.8
2018-03-24T19:11:11.097Z,13.8